sensor_id;sensor_type;location;lat;lon;timestamp;P1;durP1;ratioP1;P2;durP2;ratioP2
48777;SDS011;34578;0.000;0.000;2023-04-16T00:03:31;1.97;;;1.07;;
48777;SDS011;34578;0.000;0.000;2023-04-16T00:08:31;1.48;;;0.70;;
48777;SDS011;34578;0.000;0.000;2023-04-16T00:13:31;2.67;;;1.40;;
48777;SDS011;34578;0.000;0.000;2023-04-16T00:18:32;2.70;;;1.02;;
48777;SDS011;34578;0.000;0.000;2023-04-16T00:23:32;2.37;;;1.30;;
48777;SDS011;34578;0.000;0.000;2023-04-16T00:28:33;2.37;;;0.87;;
48777;SDS011;34578;0.000;0.000;2023-04-16T00:33:33;3.17;;;0.97;;
48777;SDS011;34578;0.000;0.000;2023-04-16T00:38:34;1.60;;;1.20;;
48777;SDS011;34578;0.000;0.000;2023-04-16T00:43:34;1.85;;;0.80;;
48777;SDS011;34578;0.000;0.000;2023-04-16T00:48:35;2.57;;;1.20;;
48777;SDS011;34578;0.000;0.000;2023-04-16T00:53:37;1.65;;;1.10;;
48777;SDS011;34578;0.000;0.000;2023-04-16T00:58:38;0.98;;;0.68;;
48777;SDS011;34578;0.000;0.000;2023-04-16T01:03:41;1.08;;;0.82;;
48777;SDS011;34578;0.000;0.000;2023-04-16T01:08:43;1.23;;;0.90;;
48777;SDS011;34578;0.000;0.000;2023-04-16T01:13:44;1.88;;;0.90;;
48777;SDS011;34578;0.000;0.000;2023-04-16T01:18:44;2.05;;;0.80;;
48777;SDS011;34578;0.000;0.000;2023-04-16T01:23:45;1.77;;;1.03;;
48777;SDS011;34578;0.000;0.000;2023-04-16T01:28:45;4.18;;;1.10;;
48777;SDS011;34578;0.000;0.000;2023-04-16T01:33:46;2.63;;;0.97;;
48777;SDS011;34578;0.000;0.000;2023-04-16T01:38:46;1.20;;;0.80;;
48777;SDS011;34578;0.000;0.000;2023-04-16T01:43:47;1.80;;;0.80;;
48777;SDS011;34578;0.000;0.000;2023-04-16T01:48:47;1.00;;;0.83;;
48777;SDS011;34578;0.000;0.000;2023-04-16T01:53:48;1.97;;;0.90;;
48777;SDS011;34578;0.000;0.000;2023-04-16T01:58:49;1.50;;;1.05;;
48777;SDS011;34578;0.000;0.000;2023-04-16T02:03:51;2.00;;;0.90;;
48777;SDS011;34578;0.000;0.000;2023-04-16T02:08:53;2.22;;;1.30;;
48777;SDS011;34578;0.000;0.000;2023-04-16T02:13:53;1.65;;;0.70;;
48777;SDS011;34578;0.000;0.000;2023-04-16T02:18:54;1.75;;;1.40;;
48777;SDS011;34578;0.000;0.000;2023-04-16T02:23:56;1.02;;;0.70;;
48777;SDS011;34578;0.000;0.000;2023-04-16T02:29:01;1.73;;;1.05;;
48777;SDS011;34578;0.000;0.000;2023-04-16T02:34:09;1.63;;;1.00;;
48777;SDS011;34578;0.000;0.000;2023-04-16T02:39:09;1.73;;;1.00;;
48777;SDS011;34578;0.000;0.000;2023-04-16T02:44:10;5.35;;;1.00;;
48777;SDS011;34578;0.000;0.000;2023-04-16T02:49:10;2.50;;;1.17;;
48777;SDS011;34578;0.000;0.000;2023-04-16T02:54:11;1.93;;;0.90;;
48777;SDS011;34578;0.000;0.000;2023-04-16T02:59:11;1.37;;;0.70;;
48777;SDS011;34578;0.000;0.000;2023-04-16T03:04:11;2.17;;;0.73;;
48777;SDS011;34578;0.000;0.000;2023-04-16T03:09:12;3.17;;;0.85;;
48777;SDS011;34578;0.000;0.000;2023-04-16T03:14:12;1.10;;;0.73;;
48777;SDS011;34578;0.000;0.000;2023-04-16T03:19:13;0.90;;;0.70;;
48777;SDS011;34578;0.000;0.000;2023-04-16T03:24:13;2.03;;;0.90;;
48777;SDS011;34578;0.000;0.000;2023-04-16T03:29:13;1.30;;;0.73;;
48777;SDS011;34578;0.000;0.000;2023-04-16T03:34:14;1.52;;;0.70;;
48777;SDS011;34578;0.000;0.000;2023-04-16T03:39:17;1.50;;;1.08;;
48777;SDS011;34578;0.000;0.000;2023-04-16T03:44:18;2.45;;;1.20;;
48777;SDS011;34578;0.000;0.000;2023-04-16T03:49:19;1.90;;;1.10;;
48777;SDS011;34578;0.000;0.000;2023-04-16T03:54:20;1.80;;;1.10;;
48777;SDS011;34578;0.000;0.000;2023-04-16T03:59:26;1.95;;;1.10;;
48777;SDS011;34578;0.000;0.000;2023-04-16T04:04:26;2.17;;;0.90;;
48777;SDS011;34578;0.000;0.000;2023-04-16T04:09:27;1.98;;;0.90;;
48777;SDS011;34578;0.000;0.000;2023-04-16T04:14:27;2.60;;;1.20;;
48777;SDS011;34578;0.000;0.000;2023-04-16T04:19:27;1.57;;;0.80;;
48777;SDS011;34578;0.000;0.000;2023-04-16T04:24:28;2.05;;;1.08;;
48777;SDS011;34578;0.000;0.000;2023-04-16T04:29:29;2.92;;;1.02;;
48777;SDS011;34578;0.000;0.000;2023-04-16T04:34:29;1.80;;;0.90;;
48777;SDS011;34578;0.000;0.000;2023-04-16T04:39:31;0.95;;;0.63;;
48777;SDS011;34578;0.000;0.000;2023-04-16T04:44:32;3.45;;;0.80;;
48777;SDS011;34578;0.000;0.000;2023-04-16T04:49:33;1.52;;;0.80;;
48777;SDS011;34578;0.000;0.000;2023-04-16T04:54:33;1.93;;;0.67;;
48777;SDS011;34578;0.000;0.000;2023-04-16T04:59:34;2.83;;;0.60;;
48777;SDS011;34578;0.000;0.000;2023-04-16T05:04:34;1.45;;;0.90;;
48777;SDS011;34578;0.000;0.000;2023-04-16T05:09:35;0.70;;;0.70;;
48777;SDS011;34578;0.000;0.000;2023-04-16T05:14:35;1.83;;;1.30;;
48777;SDS011;34578;0.000;0.000;2023-04-16T05:19:35;1.77;;;0.90;;
48777;SDS011;34578;0.000;0.000;2023-04-16T05:24:36;1.40;;;0.90;;
48777;SDS011;34578;0.000;0.000;2023-04-16T05:29:36;2.37;;;0.90;;
48777;SDS011;34578;0.000;0.000;2023-04-16T05:34:36;1.73;;;0.60;;
48777;SDS011;34578;0.000;0.000;2023-04-16T05:39:37;1.60;;;0.80;;
48777;SDS011;34578;0.000;0.000;2023-04-16T05:44:37;1.83;;;0.80;;
48777;SDS011;34578;0.000;0.000;2023-04-16T05:49:40;1.20;;;0.88;;
48777;SDS011;34578;0.000;0.000;2023-04-16T05:54:40;1.73;;;0.93;;
48777;SDS011;34578;0.000;0.000;2023-04-16T05:59:41;1.53;;;0.73;;
48777;SDS011;34578;0.000;0.000;2023-04-16T06:04:41;0.90;;;0.70;;
48777;SDS011;34578;0.000;0.000;2023-04-16T06:09:41;1.23;;;0.83;;
48777;SDS011;34578;0.000;0.000;2023-04-16T06:14:42;3.03;;;1.67;;
48777;SDS011;34578;0.000;0.000;2023-04-16T06:19:42;1.20;;;0.90;;
48777;SDS011;34578;0.000;0.000;2023-04-16T06:24:42;1.97;;;0.90;;
48777;SDS011;34578;0.000;0.000;2023-04-16T06:29:43;1.13;;;0.75;;
48777;SDS011;34578;0.000;0.000;2023-04-16T06:34:43;0.97;;;0.70;;
48777;SDS011;34578;0.000;0.000;2023-04-16T06:39:43;2.00;;;1.00;;
48777;SDS011;34578;0.000;0.000;2023-04-16T06:44:44;0.90;;;0.70;;
48777;SDS011;34578;0.000;0.000;2023-04-16T06:49:45;1.77;;;1.00;;
48777;SDS011;34578;0.000;0.000;2023-04-16T06:54:46;1.17;;;0.90;;
48777;SDS011;34578;0.000;0.000;2023-04-16T06:59:47;1.05;;;0.80;;
48777;SDS011;34578;0.000;0.000;2023-04-16T07:04:47;3.10;;;1.83;;
48777;SDS011;34578;0.000;0.000;2023-04-16T07:09:48;2.43;;;0.87;;
48777;SDS011;34578;0.000;0.000;2023-04-16T07:14:48;2.40;;;1.43;;
48777;SDS011;34578;0.000;0.000;2023-04-16T07:19:49;2.83;;;1.00;;
48777;SDS011;34578;0.000;0.000;2023-04-16T07:24:50;2.53;;;0.80;;
48777;SDS011;34578;0.000;0.000;2023-04-16T07:29:51;2.17;;;0.83;;
48777;SDS011;34578;0.000;0.000;2023-04-16T07:34:51;1.13;;;1.00;;
48777;SDS011;34578;0.000;0.000;2023-04-16T07:39:51;2.77;;;0.90;;
48777;SDS011;34578;0.000;0.000;2023-04-16T07:44:52;2.57;;;1.10;;
48777;SDS011;34578;0.000;0.000;2023-04-16T07:49:54;5.75;;;1.75;;
48777;SDS011;34578;0.000;0.000;2023-04-16T07:54:54;3.97;;;1.67;;
48777;SDS011;34578;0.000;0.000;2023-04-16T07:59:55;9.13;;;1.10;;
48777;SDS011;34578;0.000;0.000;2023-04-16T08:04:55;4.33;;;1.50;;
48777;SDS011;34578;0.000;0.000;2023-04-16T08:09:55;4.23;;;2.10;;
48777;SDS011;34578;0.000;0.000;2023-04-16T08:14:56;3.70;;;1.73;;
48777;SDS011;34578;0.000;0.000;2023-04-16T08:19:56;2.60;;;1.57;;
48777;SDS011;34578;0.000;0.000;2023-04-16T08:24:56;3.23;;;1.30;;
48777;SDS011;34578;0.000;0.000;2023-04-16T08:29:57;3.60;;;1.60;;
48777;SDS011;34578;0.000;0.000;2023-04-16T08:34:57;2.40;;;1.23;;
48777;SDS011;34578;0.000;0.000;2023-04-16T08:39:58;2.47;;;0.95;;
48777;SDS011;34578;0.000;0.000;2023-04-16T08:45:10;2.20;;;1.13;;
48777;SDS011;34578;0.000;0.000;2023-04-16T08:50:15;6.07;;;1.17;;
48777;SDS011;34578;0.000;0.000;2023-04-16T08:55:18;3.35;;;1.27;;
48777;SDS011;34578;0.000;0.000;2023-04-16T09:00:21;14.48;;;2.28;;
48777;SDS011;34578;0.000;0.000;2023-04-16T09:05:22;2.80;;;1.23;;
48777;SDS011;34578;0.000;0.000;2023-04-16T09:10:25;3.58;;;1.10;;
48777;SDS011;34578;0.000;0.000;2023-04-16T09:15:26;3.25;;;1.65;;
48777;SDS011;34578;0.000;0.000;2023-04-16T09:20:27;8.85;;;1.60;;
48777;SDS011;34578;0.000;0.000;2023-04-16T09:25:27;2.70;;;1.40;;
48777;SDS011;34578;0.000;0.000;2023-04-16T09:30:33;4.20;;;1.30;;
48777;SDS011;34578;0.000;0.000;2023-04-16T09:35:43;4.35;;;1.20;;
48777;SDS011;34578;0.000;0.000;2023-04-16T09:40:47;3.00;;;1.70;;
48777;SDS011;34578;0.000;0.000;2023-04-16T09:46:05;3.22;;;2.30;;
48777;SDS011;34578;0.000;0.000;2023-04-16T09:51:05;7.03;;;2.22;;
48777;SDS011;34578;0.000;0.000;2023-04-16T09:56:07;6.05;;;2.10;;
48777;SDS011;34578;0.000;0.000;2023-04-16T10:01:08;3.40;;;1.90;;
48777;SDS011;34578;0.000;0.000;2023-04-16T10:11:19;5.32;;;1.73;;
48777;SDS011;34578;0.000;0.000;2023-04-16T10:16:20;3.13;;;1.63;;
48777;SDS011;34578;0.000;0.000;2023-04-16T10:21:21;2.08;;;1.60;;
48777;SDS011;34578;0.000;0.000;2023-04-16T10:26:21;4.57;;;1.50;;
48777;SDS011;34578;0.000;0.000;2023-04-16T10:31:23;2.15;;;1.27;;
48777;SDS011;34578;0.000;0.000;2023-04-16T10:36:25;5.63;;;1.50;;
48777;SDS011;34578;0.000;0.000;2023-04-16T10:41:26;2.72;;;1.55;;
48777;SDS011;34578;0.000;0.000;2023-04-16T10:56:35;2.50;;;1.00;;
48777;SDS011;34578;0.000;0.000;2023-04-16T11:01:38;1.17;;;0.90;;
48777;SDS011;34578;0.000;0.000;2023-04-16T11:06:40;2.00;;;1.05;;
48777;SDS011;34578;0.000;0.000;2023-04-16T11:11:58;2.45;;;1.23;;
48777;SDS011;34578;0.000;0.000;2023-04-16T11:17:02;3.97;;;1.40;;
48777;SDS011;34578;0.000;0.000;2023-04-16T11:22:02;2.67;;;1.45;;
48777;SDS011;34578;0.000;0.000;2023-04-16T11:27:03;7.10;;;1.30;;
48777;SDS011;34578;0.000;0.000;2023-04-16T11:32:04;1.80;;;1.10;;
48777;SDS011;34578;0.000;0.000;2023-04-16T11:37:04;2.47;;;1.30;;
48777;SDS011;34578;0.000;0.000;2023-04-16T11:42:05;3.38;;;1.25;;
48777;SDS011;34578;0.000;0.000;2023-04-16T11:47:05;4.50;;;1.80;;
48777;SDS011;34578;0.000;0.000;2023-04-16T11:52:06;5.07;;;1.40;;
48777;SDS011;34578;0.000;0.000;2023-04-16T11:57:06;4.97;;;1.40;;
48777;SDS011;34578;0.000;0.000;2023-04-16T12:02:07;3.83;;;1.10;;
48777;SDS011;34578;0.000;0.000;2023-04-16T12:07:08;4.17;;;1.70;;
48777;SDS011;34578;0.000;0.000;2023-04-16T12:12:26;3.83;;;1.60;;
48777;SDS011;34578;0.000;0.000;2023-04-16T12:17:32;6.07;;;2.80;;
48777;SDS011;34578;0.000;0.000;2023-04-16T12:22:36;5.03;;;3.20;;
48777;SDS011;34578;0.000;0.000;2023-04-16T12:27:41;4.70;;;4.30;;
48777;SDS011;34578;0.000;0.000;2023-04-16T12:32:42;5.22;;;3.72;;
48777;SDS011;34578;0.000;0.000;2023-04-16T12:37:44;3.95;;;3.63;;
48777;SDS011;34578;0.000;0.000;2023-04-16T12:42:44;3.80;;;3.50;;
48777;SDS011;34578;0.000;0.000;2023-04-16T12:47:45;4.72;;;2.80;;
48777;SDS011;34578;0.000;0.000;2023-04-16T12:52:46;4.88;;;3.40;;
48777;SDS011;34578;0.000;0.000;2023-04-16T12:57:46;3.95;;;3.22;;
48777;SDS011;34578;0.000;0.000;2023-04-16T13:02:47;5.00;;;3.92;;
48777;SDS011;34578;0.000;0.000;2023-04-16T13:07:48;4.73;;;4.27;;
48777;SDS011;34578;0.000;0.000;2023-04-16T13:12:48;3.97;;;3.67;;
48777;SDS011;34578;0.000;0.000;2023-04-16T13:17:48;4.60;;;4.20;;
48777;SDS011;34578;0.000;0.000;2023-04-16T13:22:49;5.53;;;3.73;;
48777;SDS011;34578;0.000;0.000;2023-04-16T13:27:52;6.10;;;4.53;;
48777;SDS011;34578;0.000;0.000;2023-04-16T13:32:52;5.33;;;4.20;;
48777;SDS011;34578;0.000;0.000;2023-04-16T13:37:53;3.83;;;3.53;;
48777;SDS011;34578;0.000;0.000;2023-04-16T13:42:53;6.50;;;4.03;;
48777;SDS011;34578;0.000;0.000;2023-04-16T13:47:54;4.78;;;3.58;;
48777;SDS011;34578;0.000;0.000;2023-04-16T13:52:55;5.45;;;4.28;;
48777;SDS011;34578;0.000;0.000;2023-04-16T13:57:55;5.53;;;4.63;;
48777;SDS011;34578;0.000;0.000;2023-04-16T14:02:56;5.43;;;3.22;;
48777;SDS011;34578;0.000;0.000;2023-04-16T14:07:56;4.27;;;3.87;;
48777;SDS011;34578;0.000;0.000;2023-04-16T14:12:57;5.43;;;4.07;;
48777;SDS011;34578;0.000;0.000;2023-04-16T14:17:57;4.75;;;4.13;;
48777;SDS011;34578;0.000;0.000;2023-04-16T14:22:57;5.90;;;4.67;;
48777;SDS011;34578;0.000;0.000;2023-04-16T14:27:58;5.50;;;5.00;;
48777;SDS011;34578;0.000;0.000;2023-04-16T14:32:59;11.48;;;5.32;;
48777;SDS011;34578;0.000;0.000;2023-04-16T14:38:00;7.00;;;4.93;;
48777;SDS011;34578;0.000;0.000;2023-04-16T14:43:01;8.02;;;5.35;;
48777;SDS011;34578;0.000;0.000;2023-04-16T14:48:01;5.03;;;4.53;;
48777;SDS011;34578;0.000;0.000;2023-04-16T14:53:02;6.13;;;5.13;;
48777;SDS011;34578;0.000;0.000;2023-04-16T14:58:03;5.97;;;4.47;;
48777;SDS011;34578;0.000;0.000;2023-04-16T15:03:03;5.68;;;4.40;;
48777;SDS011;34578;0.000;0.000;2023-04-16T15:08:04;4.72;;;3.90;;
48777;SDS011;34578;0.000;0.000;2023-04-16T15:13:05;5.07;;;4.57;;
48777;SDS011;34578;0.000;0.000;2023-04-16T15:18:05;4.40;;;4.00;;
48777;SDS011;34578;0.000;0.000;2023-04-16T15:23:05;5.13;;;4.63;;
48777;SDS011;34578;0.000;0.000;2023-04-16T15:28:06;4.38;;;3.90;;
48777;SDS011;34578;0.000;0.000;2023-04-16T15:33:06;6.47;;;4.17;;
48777;SDS011;34578;0.000;0.000;2023-04-16T15:38:07;4.50;;;4.10;;
48777;SDS011;34578;0.000;0.000;2023-04-16T15:43:07;5.57;;;4.80;;
48777;SDS011;34578;0.000;0.000;2023-04-16T15:48:08;5.18;;;4.45;;
48777;SDS011;34578;0.000;0.000;2023-04-16T15:53:08;6.50;;;3.57;;
48777;SDS011;34578;0.000;0.000;2023-04-16T15:58:09;6.25;;;5.13;;
48777;SDS011;34578;0.000;0.000;2023-04-16T16:03:09;9.02;;;6.13;;
48777;SDS011;34578;0.000;0.000;2023-04-16T16:08:10;7.47;;;5.55;;
48777;SDS011;34578;0.000;0.000;2023-04-16T16:13:11;8.20;;;5.80;;
48777;SDS011;34578;0.000;0.000;2023-04-16T16:18:15;11.18;;;5.68;;
48777;SDS011;34578;0.000;0.000;2023-04-16T16:23:15;7.18;;;5.65;;
48777;SDS011;34578;0.000;0.000;2023-04-16T16:28:15;6.77;;;5.03;;
48777;SDS011;34578;0.000;0.000;2023-04-16T16:33:16;8.90;;;6.37;;
48777;SDS011;34578;0.000;0.000;2023-04-16T16:38:16;8.63;;;5.90;;
48777;SDS011;34578;0.000;0.000;2023-04-16T16:43:17;9.32;;;5.75;;
48777;SDS011;34578;0.000;0.000;2023-04-16T16:48:17;5.13;;;4.60;;
48777;SDS011;34578;0.000;0.000;2023-04-16T16:53:17;6.77;;;5.20;;
48777;SDS011;34578;0.000;0.000;2023-04-16T16:58:18;10.47;;;6.20;;
48777;SDS011;34578;0.000;0.000;2023-04-16T17:03:18;10.20;;;8.03;;
48777;SDS011;34578;0.000;0.000;2023-04-16T17:08:18;11.83;;;6.57;;
48777;SDS011;34578;0.000;0.000;2023-04-16T17:13:19;11.57;;;7.90;;
48777;SDS011;34578;0.000;0.000;2023-04-16T17:18:19;13.25;;;8.35;;
48777;SDS011;34578;0.000;0.000;2023-04-16T17:23:20;12.63;;;7.90;;
48777;SDS011;34578;0.000;0.000;2023-04-16T17:28:20;15.18;;;7.43;;
48777;SDS011;34578;0.000;0.000;2023-04-16T17:33:20;16.60;;;7.33;;
48777;SDS011;34578;0.000;0.000;2023-04-16T17:38:21;12.23;;;6.00;;
48777;SDS011;34578;0.000;0.000;2023-04-16T17:43:21;12.20;;;6.43;;
48777;SDS011;34578;0.000;0.000;2023-04-16T17:48:23;9.68;;;5.88;;
48777;SDS011;34578;0.000;0.000;2023-04-16T17:53:23;9.77;;;5.47;;
48777;SDS011;34578;0.000;0.000;2023-04-16T17:58:23;8.40;;;5.73;;
48777;SDS011;34578;0.000;0.000;2023-04-16T18:03:25;9.15;;;4.75;;
48777;SDS011;34578;0.000;0.000;2023-04-16T18:08:26;9.98;;;5.70;;
48777;SDS011;34578;0.000;0.000;2023-04-16T18:13:26;9.52;;;6.50;;
48777;SDS011;34578;0.000;0.000;2023-04-16T18:18:27;9.23;;;5.17;;
48777;SDS011;34578;0.000;0.000;2023-04-16T18:23:27;8.67;;;6.53;;
48777;SDS011;34578;0.000;0.000;2023-04-16T18:28:30;8.80;;;6.22;;
48777;SDS011;34578;0.000;0.000;2023-04-16T18:33:30;12.60;;;7.07;;
48777;SDS011;34578;0.000;0.000;2023-04-16T18:38:31;10.90;;;5.78;;
48777;SDS011;34578;0.000;0.000;2023-04-16T18:43:31;8.38;;;5.80;;
48777;SDS011;34578;0.000;0.000;2023-04-16T18:48:32;8.63;;;5.60;;
48777;SDS011;34578;0.000;0.000;2023-04-16T18:53:32;8.53;;;5.97;;
48777;SDS011;34578;0.000;0.000;2023-04-16T18:58:33;8.68;;;4.95;;
48777;SDS011;34578;0.000;0.000;2023-04-16T19:03:33;11.13;;;6.57;;
48777;SDS011;34578;0.000;0.000;2023-04-16T19:08:33;7.33;;;5.23;;
48777;SDS011;34578;0.000;0.000;2023-04-16T19:13:34;8.23;;;5.37;;
48777;SDS011;34578;0.000;0.000;2023-04-16T19:18:34;11.15;;;7.35;;
48777;SDS011;34578;0.000;0.000;2023-04-16T19:23:35;8.60;;;5.67;;
48777;SDS011;34578;0.000;0.000;2023-04-16T19:28:35;5.85;;;4.07;;
48777;SDS011;34578;0.000;0.000;2023-04-16T19:33:37;5.60;;;4.65;;
48777;SDS011;34578;0.000;0.000;2023-04-16T19:38:37;8.30;;;5.50;;
48777;SDS011;34578;0.000;0.000;2023-04-16T19:43:38;9.47;;;5.07;;
48777;SDS011;34578;0.000;0.000;2023-04-16T19:48:38;7.37;;;5.70;;
48777;SDS011;34578;0.000;0.000;2023-04-16T19:53:38;6.80;;;4.27;;
48777;SDS011;34578;0.000;0.000;2023-04-16T19:58:39;7.28;;;5.22;;
48777;SDS011;34578;0.000;0.000;2023-04-16T20:03:40;6.73;;;4.50;;
48777;SDS011;34578;0.000;0.000;2023-04-16T20:08:40;7.50;;;4.83;;
48777;SDS011;34578;0.000;0.000;2023-04-16T20:13:46;6.65;;;4.97;;
48777;SDS011;34578;0.000;0.000;2023-04-16T20:18:47;6.68;;;4.50;;
48777;SDS011;34578;0.000;0.000;2023-04-16T20:23:48;8.05;;;4.80;;
48777;SDS011;34578;0.000;0.000;2023-04-16T20:28:48;6.93;;;4.87;;
48777;SDS011;34578;0.000;0.000;2023-04-16T20:33:48;6.17;;;4.77;;
48777;SDS011;34578;0.000;0.000;2023-04-16T20:38:49;13.15;;;5.28;;
48777;SDS011;34578;0.000;0.000;2023-04-16T20:43:51;7.45;;;4.47;;
48777;SDS011;34578;0.000;0.000;2023-04-16T20:48:51;9.43;;;5.55;;
48777;SDS011;34578;0.000;0.000;2023-04-16T20:53:54;9.57;;;5.57;;
48777;SDS011;34578;0.000;0.000;2023-04-16T20:58:55;5.55;;;4.03;;
48777;SDS011;34578;0.000;0.000;2023-04-16T21:03:58;6.88;;;5.85;;
48777;SDS011;34578;0.000;0.000;2023-04-16T21:08:58;7.77;;;4.20;;
48777;SDS011;34578;0.000;0.000;2023-04-16T21:13:59;6.85;;;4.55;;
48777;SDS011;34578;0.000;0.000;2023-04-16T21:19:00;14.07;;;5.68;;
48777;SDS011;34578;0.000;0.000;2023-04-16T21:24:00;7.00;;;4.40;;
48777;SDS011;34578;0.000;0.000;2023-04-16T21:29:01;7.07;;;4.40;;
48777;SDS011;34578;0.000;0.000;2023-04-16T21:34:01;8.30;;;4.57;;
48777;SDS011;34578;0.000;0.000;2023-04-16T21:39:01;8.30;;;4.70;;
48777;SDS011;34578;0.000;0.000;2023-04-16T21:44:02;12.75;;;5.93;;
48777;SDS011;34578;0.000;0.000;2023-04-16T21:49:02;15.70;;;4.97;;
48777;SDS011;34578;0.000;0.000;2023-04-16T21:54:03;7.15;;;4.63;;
48777;SDS011;34578;0.000;0.000;2023-04-16T21:59:03;6.57;;;4.07;;
48777;SDS011;34578;0.000;0.000;2023-04-16T22:04:03;6.30;;;4.77;;
48777;SDS011;34578;0.000;0.000;2023-04-16T22:09:04;10.00;;;4.95;;
48777;SDS011;34578;0.000;0.000;2023-04-16T22:14:05;7.75;;;4.68;;
48777;SDS011;34578;0.000;0.000;2023-04-16T22:19:07;6.65;;;4.32;;
48777;SDS011;34578;0.000;0.000;2023-04-16T22:24:07;10.43;;;4.43;;
48777;SDS011;34578;0.000;0.000;2023-04-16T22:29:08;7.10;;;4.60;;
48777;SDS011;34578;0.000;0.000;2023-04-16T22:34:08;8.57;;;4.30;;
48777;SDS011;34578;0.000;0.000;2023-04-16T22:39:08;7.33;;;4.50;;
48777;SDS011;34578;0.000;0.000;2023-04-16T22:44:09;8.70;;;4.13;;
48777;SDS011;34578;0.000;0.000;2023-04-16T22:49:09;6.87;;;4.53;;
48777;SDS011;34578;0.000;0.000;2023-04-16T22:54:09;10.90;;;4.17;;
48777;SDS011;34578;0.000;0.000;2023-04-16T22:59:10;5.55;;;3.90;;
48777;SDS011;34578;0.000;0.000;2023-04-16T23:04:10;9.57;;;3.90;;
48777;SDS011;34578;0.000;0.000;2023-04-16T23:09:11;10.03;;;4.20;;
48777;SDS011;34578;0.000;0.000;2023-04-16T23:14:11;6.73;;;3.60;;
48777;SDS011;34578;0.000;0.000;2023-04-16T23:19:12;6.43;;;3.70;;
48777;SDS011;34578;0.000;0.000;2023-04-16T23:24:13;7.60;;;4.32;;
48777;SDS011;34578;0.000;0.000;2023-04-16T23:29:14;6.93;;;3.77;;
48777;SDS011;34578;0.000;0.000;2023-04-16T23:34:14;6.03;;;3.47;;
48777;SDS011;34578;0.000;0.000;2023-04-16T23:39:14;7.93;;;4.37;;
48777;SDS011;34578;0.000;0.000;2023-04-16T23:44:15;7.10;;;3.75;;
48777;SDS011;34578;0.000;0.000;2023-04-16T23:49:15;7.13;;;3.80;;
48777;SDS011;34578;0.000;0.000;2023-04-16T23:54:15;6.23;;;3.93;;
48777;SDS011;34578;0.000;0.000;2023-04-16T23:59:16;7.07;;;3.60;;
